sensor_id;sensor_type;location;lat;lon;timestamp;temperature;humidity
29237;DHT22;16266;50.866;4.398;2024-03-02T00:00:49;6.60;99.90
29237;DHT22;16266;50.866;4.398;2024-03-02T00:03:15;6.60;99.90
29237;DHT22;16266;50.866;4.398;2024-03-02T00:05:41;6.50;99.90
29237;DHT22;16266;50.866;4.398;2024-03-02T00:08:07;6.50;99.90
29237;DHT22;16266;50.866;4.398;2024-03-02T00:10:37;6.50;99.90
29237;DHT22;16266;50.866;4.398;2024-03-02T00:13:05;6.50;99.90
29237;DHT22;16266;50.866;4.398;2024-03-02T00:18:35;6.50;99.90
29237;DHT22;16266;50.866;4.398;2024-03-02T00:21:01;6.40;99.90
29237;DHT22;16266;50.866;4.398;2024-03-02T00:23:29;6.40;99.90
29237;DHT22;16266;50.866;4.398;2024-03-02T00:25:55;6.40;99.90
29237;DHT22;16266;50.866;4.398;2024-03-02T00:28:22;6.30;99.90
29237;DHT22;16266;50.866;4.398;2024-03-02T00:30:51;6.30;99.90
29237;DHT22;16266;50.866;4.398;2024-03-02T00:33:19;6.30;99.90
29237;DHT22;16266;50.866;4.398;2024-03-02T00:35:45;6.30;99.90
29237;DHT22;16266;50.866;4.398;2024-03-02T00:38:10;6.40;99.90
29237;DHT22;16266;50.866;4.398;2024-03-02T00:40:36;6.30;99.90
29237;DHT22;16266;50.866;4.398;2024-03-02T00:43:02;6.30;99.90
29237;DHT22;16266;50.866;4.398;2024-03-02T00:45:28;6.40;99.90
29237;DHT22;16266;50.866;4.398;2024-03-02T00:47:54;6.30;99.90
29237;DHT22;16266;50.866;4.398;2024-03-02T00:50:20;6.40;99.90
29237;DHT22;16266;50.866;4.398;2024-03-02T00:52:46;6.30;99.90
29237;DHT22;16266;50.866;4.398;2024-03-02T00:55:13;6.40;99.90
29237;DHT22;16266;50.866;4.398;2024-03-02T00:57:39;6.30;99.90
29237;DHT22;16266;50.866;4.398;2024-03-02T01:00:05;6.30;99.90
29237;DHT22;16266;50.866;4.398;2024-03-02T01:02:35;6.30;99.90
29237;DHT22;16266;50.866;4.398;2024-03-02T01:05:00;6.30;99.90
29237;DHT22;16266;50.866;4.398;2024-03-02T01:07:26;6.20;99.90
29237;DHT22;16266;50.866;4.398;2024-03-02T01:09:51;6.30;99.90
29237;DHT22;16266;50.866;4.398;2024-03-02T01:12:18;6.30;99.90
29237;DHT22;16266;50.866;4.398;2024-03-02T01:14:43;6.30;99.90
29237;DHT22;16266;50.866;4.398;2024-03-02T01:17:09;6.30;99.90
29237;DHT22;16266;50.866;4.398;2024-03-02T01:19:35;6.40;99.90
29237;DHT22;16266;50.866;4.398;2024-03-02T01:22:00;6.40;99.90
29237;DHT22;16266;50.866;4.398;2024-03-02T01:24:26;6.30;99.90
29237;DHT22;16266;50.866;4.398;2024-03-02T01:26:51;6.30;99.90
29237;DHT22;16266;50.866;4.398;2024-03-02T01:29:17;6.40;99.90
29237;DHT22;16266;50.866;4.398;2024-03-02T01:31:43;6.30;99.90
29237;DHT22;16266;50.866;4.398;2024-03-02T01:34:09;6.30;99.90
29237;DHT22;16266;50.866;4.398;2024-03-02T01:36:35;6.30;99.90
29237;DHT22;16266;50.866;4.398;2024-03-02T01:39:00;6.20;99.90
29237;DHT22;16266;50.866;4.398;2024-03-02T01:41:27;6.20;99.90
29237;DHT22;16266;50.866;4.398;2024-03-02T01:43:52;6.20;99.90
29237;DHT22;16266;50.866;4.398;2024-03-02T01:46:18;6.20;99.90
29237;DHT22;16266;50.866;4.398;2024-03-02T01:48:44;6.30;99.90
29237;DHT22;16266;50.866;4.398;2024-03-02T01:51:09;6.20;99.90
29237;DHT22;16266;50.866;4.398;2024-03-02T01:53:35;6.20;99.90
29237;DHT22;16266;50.866;4.398;2024-03-02T01:56:01;6.20;99.90
29237;DHT22;16266;50.866;4.398;2024-03-02T01:58:27;6.30;99.90
29237;DHT22;16266;50.866;4.398;2024-03-02T02:00:52;6.30;99.90
29237;DHT22;16266;50.866;4.398;2024-03-02T02:03:18;6.40;99.90
29237;DHT22;16266;50.866;4.398;2024-03-02T02:05:44;6.30;99.90
29237;DHT22;16266;50.866;4.398;2024-03-02T02:08:09;6.30;99.90
29237;DHT22;16266;50.866;4.398;2024-03-02T02:10:35;6.40;99.90
29237;DHT22;16266;50.866;4.398;2024-03-02T02:13:00;6.30;99.90
29237;DHT22;16266;50.866;4.398;2024-03-02T02:15:29;6.40;99.90
29237;DHT22;16266;50.866;4.398;2024-03-02T02:17:56;6.50;99.90
29237;DHT22;16266;50.866;4.398;2024-03-02T02:20:21;6.40;99.90
29237;DHT22;16266;50.866;4.398;2024-03-02T02:25:19;6.40;99.90
29237;DHT22;16266;50.866;4.398;2024-03-02T02:27:44;6.40;99.90
29237;DHT22;16266;50.866;4.398;2024-03-02T02:30:10;6.40;99.90
29237;DHT22;16266;50.866;4.398;2024-03-02T02:32:35;6.40;99.90
29237;DHT22;16266;50.866;4.398;2024-03-02T02:35:01;6.40;99.90
29237;DHT22;16266;50.866;4.398;2024-03-02T02:37:28;6.40;99.90
29237;DHT22;16266;50.866;4.398;2024-03-02T02:39:54;6.40;99.90
29237;DHT22;16266;50.866;4.398;2024-03-02T02:42:19;6.50;99.90
29237;DHT22;16266;50.866;4.398;2024-03-02T02:44:46;6.40;99.90
29237;DHT22;16266;50.866;4.398;2024-03-02T02:47:11;6.30;99.90
29237;DHT22;16266;50.866;4.398;2024-03-02T02:49:37;6.40;99.90
29237;DHT22;16266;50.866;4.398;2024-03-02T02:52:02;6.30;99.90
29237;DHT22;16266;50.866;4.398;2024-03-02T02:54:28;6.20;99.90
29237;DHT22;16266;50.866;4.398;2024-03-02T02:56:53;6.20;99.90
29237;DHT22;16266;50.866;4.398;2024-03-02T02:59:19;6.00;99.90
29237;DHT22;16266;50.866;4.398;2024-03-02T03:01:44;6.00;99.90
29237;DHT22;16266;50.866;4.398;2024-03-02T03:04:10;5.90;99.90
29237;DHT22;16266;50.866;4.398;2024-03-02T03:06:35;5.80;99.90
29237;DHT22;16266;50.866;4.398;2024-03-02T03:09:01;5.70;99.90
29237;DHT22;16266;50.866;4.398;2024-03-02T03:11:27;5.70;99.90
29237;DHT22;16266;50.866;4.398;2024-03-02T03:13:53;5.70;99.90
29237;DHT22;16266;50.866;4.398;2024-03-02T03:16:19;5.60;99.90
29237;DHT22;16266;50.866;4.398;2024-03-02T03:18:45;5.60;99.90
29237;DHT22;16266;50.866;4.398;2024-03-02T03:21:10;5.60;99.90
29237;DHT22;16266;50.866;4.398;2024-03-02T03:23:36;5.50;99.90
29237;DHT22;16266;50.866;4.398;2024-03-02T03:26:01;5.50;99.90
29237;DHT22;16266;50.866;4.398;2024-03-02T03:28:27;5.50;99.90
29237;DHT22;16266;50.866;4.398;2024-03-02T03:30:52;5.60;99.90
29237;DHT22;16266;50.866;4.398;2024-03-02T03:33:18;5.60;99.90
29237;DHT22;16266;50.866;4.398;2024-03-02T03:35:43;5.60;99.90
29237;DHT22;16266;50.866;4.398;2024-03-02T03:38:09;5.70;99.90
29237;DHT22;16266;50.866;4.398;2024-03-02T03:40:34;5.80;99.90
29237;DHT22;16266;50.866;4.398;2024-03-02T03:43:00;5.90;99.90
29237;DHT22;16266;50.866;4.398;2024-03-02T03:45:25;5.80;99.90
29237;DHT22;16266;50.866;4.398;2024-03-02T03:47:52;5.90;99.90
29237;DHT22;16266;50.866;4.398;2024-03-02T03:50:18;5.80;99.90
29237;DHT22;16266;50.866;4.398;2024-03-02T03:52:43;5.90;99.90
29237;DHT22;16266;50.866;4.398;2024-03-02T03:55:09;5.90;99.90
29237;DHT22;16266;50.866;4.398;2024-03-02T03:57:35;5.90;99.90
29237;DHT22;16266;50.866;4.398;2024-03-02T04:00:01;5.90;99.90
29237;DHT22;16266;50.866;4.398;2024-03-02T04:02:26;6.10;99.90
29237;DHT22;16266;50.866;4.398;2024-03-02T04:04:52;6.00;99.90
29237;DHT22;16266;50.866;4.398;2024-03-02T04:07:17;6.00;99.90
29237;DHT22;16266;50.866;4.398;2024-03-02T04:09:44;6.00;99.90
29237;DHT22;16266;50.866;4.398;2024-03-02T04:12:09;6.00;99.90
29237;DHT22;16266;50.866;4.398;2024-03-02T04:14:35;6.00;99.90
29237;DHT22;16266;50.866;4.398;2024-03-02T04:17:00;6.00;99.90
29237;DHT22;16266;50.866;4.398;2024-03-02T04:19:26;5.90;99.90
29237;DHT22;16266;50.866;4.398;2024-03-02T04:21:51;5.80;99.90
29237;DHT22;16266;50.866;4.398;2024-03-02T04:24:17;5.70;99.90
29237;DHT22;16266;50.866;4.398;2024-03-02T04:26:42;5.70;99.90
29237;DHT22;16266;50.866;4.398;2024-03-02T04:29:08;5.70;99.90
29237;DHT22;16266;50.866;4.398;2024-03-02T04:31:33;5.60;99.90
29237;DHT22;16266;50.866;4.398;2024-03-02T04:33:59;5.50;99.90
29237;DHT22;16266;50.866;4.398;2024-03-02T04:36:24;5.50;99.90
29237;DHT22;16266;50.866;4.398;2024-03-02T04:38:50;5.60;99.90
29237;DHT22;16266;50.866;4.398;2024-03-02T04:41:15;5.60;99.90
29237;DHT22;16266;50.866;4.398;2024-03-02T04:43:41;5.50;99.90
29237;DHT22;16266;50.866;4.398;2024-03-02T04:46:06;5.60;99.90
29237;DHT22;16266;50.866;4.398;2024-03-02T04:48:33;5.60;99.90
29237;DHT22;16266;50.866;4.398;2024-03-02T04:50:58;5.50;99.90
29237;DHT22;16266;50.866;4.398;2024-03-02T04:53:24;5.60;99.90
29237;DHT22;16266;50.866;4.398;2024-03-02T04:55:50;5.60;99.90
29237;DHT22;16266;50.866;4.398;2024-03-02T04:58:34;5.50;99.90
29237;DHT22;16266;50.866;4.398;2024-03-02T05:00:59;5.50;99.90
29237;DHT22;16266;50.866;4.398;2024-03-02T05:03:25;5.50;99.90
29237;DHT22;16266;50.866;4.398;2024-03-02T05:05:50;5.50;99.90
29237;DHT22;16266;50.866;4.398;2024-03-02T05:08:16;5.40;99.90
29237;DHT22;16266;50.866;4.398;2024-03-02T05:10:42;5.30;99.90
29237;DHT22;16266;50.866;4.398;2024-03-02T05:13:07;5.30;99.90
29237;DHT22;16266;50.866;4.398;2024-03-02T05:15:33;5.30;99.90
29237;DHT22;16266;50.866;4.398;2024-03-02T05:17:58;5.30;99.90
29237;DHT22;16266;50.866;4.398;2024-03-02T05:20:24;5.10;99.90
29237;DHT22;16266;50.866;4.398;2024-03-02T05:22:50;5.10;99.90
29237;DHT22;16266;50.866;4.398;2024-03-02T05:25:15;5.10;99.90
29237;DHT22;16266;50.866;4.398;2024-03-02T05:27:41;5.00;99.90
29237;DHT22;16266;50.866;4.398;2024-03-02T05:30:07;5.10;99.90
29237;DHT22;16266;50.866;4.398;2024-03-02T05:32:33;5.10;99.90
29237;DHT22;16266;50.866;4.398;2024-03-02T05:34:58;5.00;99.90
29237;DHT22;16266;50.866;4.398;2024-03-02T05:37:24;5.00;99.90
29237;DHT22;16266;50.866;4.398;2024-03-02T05:39:49;4.90;99.90
29237;DHT22;16266;50.866;4.398;2024-03-02T05:42:15;5.00;99.90
29237;DHT22;16266;50.866;4.398;2024-03-02T05:44:42;4.90;99.90
29237;DHT22;16266;50.866;4.398;2024-03-02T05:47:07;5.00;99.90
29237;DHT22;16266;50.866;4.398;2024-03-02T05:49:34;5.00;99.90
29237;DHT22;16266;50.866;4.398;2024-03-02T05:51:59;5.10;99.90
29237;DHT22;16266;50.866;4.398;2024-03-02T05:54:25;5.10;99.90
29237;DHT22;16266;50.866;4.398;2024-03-02T05:56:50;5.00;99.90
29237;DHT22;16266;50.866;4.398;2024-03-02T05:59:16;5.00;99.90
29237;DHT22;16266;50.866;4.398;2024-03-02T06:01:42;5.00;99.90
29237;DHT22;16266;50.866;4.398;2024-03-02T06:04:11;5.00;99.90
29237;DHT22;16266;50.866;4.398;2024-03-02T06:06:36;5.00;99.90
29237;DHT22;16266;50.866;4.398;2024-03-02T06:09:02;5.10;99.90
29237;DHT22;16266;50.866;4.398;2024-03-02T06:11:30;5.10;99.90
29237;DHT22;16266;50.866;4.398;2024-03-02T06:13:56;5.10;99.90
29237;DHT22;16266;50.866;4.398;2024-03-02T06:16:21;5.10;99.90
29237;DHT22;16266;50.866;4.398;2024-03-02T06:18:47;5.10;99.90
29237;DHT22;16266;50.866;4.398;2024-03-02T06:21:12;5.10;99.90
29237;DHT22;16266;50.866;4.398;2024-03-02T06:23:38;5.00;99.90
29237;DHT22;16266;50.866;4.398;2024-03-02T06:26:03;5.00;99.90
29237;DHT22;16266;50.866;4.398;2024-03-02T06:28:29;5.00;99.90
29237;DHT22;16266;50.866;4.398;2024-03-02T06:30:54;4.90;99.90
29237;DHT22;16266;50.866;4.398;2024-03-02T06:33:20;5.00;99.90
29237;DHT22;16266;50.866;4.398;2024-03-02T06:35:45;5.00;99.90
29237;DHT22;16266;50.866;4.398;2024-03-02T06:38:11;5.10;99.90
29237;DHT22;16266;50.866;4.398;2024-03-02T06:40:36;5.10;99.90
29237;DHT22;16266;50.866;4.398;2024-03-02T06:43:04;5.00;99.90
29237;DHT22;16266;50.866;4.398;2024-03-02T06:45:30;5.00;99.90
29237;DHT22;16266;50.866;4.398;2024-03-02T06:47:56;5.00;99.90
29237;DHT22;16266;50.866;4.398;2024-03-02T06:50:21;5.00;99.90
29237;DHT22;16266;50.866;4.398;2024-03-02T06:52:47;5.00;99.90
29237;DHT22;16266;50.866;4.398;2024-03-02T06:55:12;5.00;99.90
29237;DHT22;16266;50.866;4.398;2024-03-02T06:57:38;5.00;99.90
29237;DHT22;16266;50.866;4.398;2024-03-02T07:00:04;5.10;99.90
29237;DHT22;16266;50.866;4.398;2024-03-02T07:02:30;5.10;99.90
29237;DHT22;16266;50.866;4.398;2024-03-02T07:04:56;5.20;99.90
29237;DHT22;16266;50.866;4.398;2024-03-02T07:07:21;5.60;99.90
29237;DHT22;16266;50.866;4.398;2024-03-02T07:09:47;6.10;99.90
29237;DHT22;16266;50.866;4.398;2024-03-02T07:12:13;6.50;99.90
29237;DHT22;16266;50.866;4.398;2024-03-02T07:14:38;6.90;99.90
29237;DHT22;16266;50.866;4.398;2024-03-02T07:17:36;7.00;99.90
29237;DHT22;16266;50.866;4.398;2024-03-02T07:20:02;7.20;99.90
29237;DHT22;16266;50.866;4.398;2024-03-02T07:22:29;7.60;99.90
29237;DHT22;16266;50.866;4.398;2024-03-02T07:24:54;7.70;99.90
29237;DHT22;16266;50.866;4.398;2024-03-02T07:27:20;8.20;99.90
29237;DHT22;16266;50.866;4.398;2024-03-02T07:29:45;8.50;99.90
29237;DHT22;16266;50.866;4.398;2024-03-02T07:32:11;8.70;99.90
29237;DHT22;16266;50.866;4.398;2024-03-02T07:34:36;9.00;99.90
29237;DHT22;16266;50.866;4.398;2024-03-02T07:37:03;9.50;99.90
29237;DHT22;16266;50.866;4.398;2024-03-02T07:39:28;10.00;99.90
29237;DHT22;16266;50.866;4.398;2024-03-02T07:41:54;9.80;99.90
29237;DHT22;16266;50.866;4.398;2024-03-02T07:44:20;9.80;99.90
29237;DHT22;16266;50.866;4.398;2024-03-02T07:46:46;10.10;99.90
29237;DHT22;16266;50.866;4.398;2024-03-02T07:49:12;10.40;99.90
29237;DHT22;16266;50.866;4.398;2024-03-02T07:51:39;10.70;99.90
29237;DHT22;16266;50.866;4.398;2024-03-02T07:54:04;10.80;99.90
29237;DHT22;16266;50.866;4.398;2024-03-02T07:56:30;10.80;99.90
29237;DHT22;16266;50.866;4.398;2024-03-02T07:58:55;11.30;99.90
29237;DHT22;16266;50.866;4.398;2024-03-02T08:01:22;11.60;99.90
29237;DHT22;16266;50.866;4.398;2024-03-02T08:03:48;11.70;99.90
29237;DHT22;16266;50.866;4.398;2024-03-02T08:06:15;12.10;99.90
29237;DHT22;16266;50.866;4.398;2024-03-02T08:08:41;12.40;99.90
29237;DHT22;16266;50.866;4.398;2024-03-02T08:11:06;12.50;99.90
29237;DHT22;16266;50.866;4.398;2024-03-02T08:13:32;12.80;99.90
29237;DHT22;16266;50.866;4.398;2024-03-02T08:15:57;13.10;99.90
29237;DHT22;16266;50.866;4.398;2024-03-02T08:18:23;13.10;99.90
29237;DHT22;16266;50.866;4.398;2024-03-02T08:20:49;12.30;99.90
29237;DHT22;16266;50.866;4.398;2024-03-02T08:23:14;12.50;99.90
29237;DHT22;16266;50.866;4.398;2024-03-02T08:25:40;13.00;99.90
29237;DHT22;16266;50.866;4.398;2024-03-02T08:28:05;13.60;99.90
29237;DHT22;16266;50.866;4.398;2024-03-02T08:30:31;13.90;99.90
29237;DHT22;16266;50.866;4.398;2024-03-02T08:32:57;14.30;99.90
29237;DHT22;16266;50.866;4.398;2024-03-02T08:35:22;14.60;99.90
29237;DHT22;16266;50.866;4.398;2024-03-02T08:37:48;13.90;99.90
29237;DHT22;16266;50.866;4.398;2024-03-02T08:40:15;14.00;99.90
29237;DHT22;16266;50.866;4.398;2024-03-02T08:42:40;13.70;99.90
29237;DHT22;16266;50.866;4.398;2024-03-02T08:45:06;14.30;99.90
29237;DHT22;16266;50.866;4.398;2024-03-02T08:47:32;14.70;99.90
29237;DHT22;16266;50.866;4.398;2024-03-02T08:49:58;15.20;99.90
29237;DHT22;16266;50.866;4.398;2024-03-02T08:52:24;14.60;99.90
29237;DHT22;16266;50.866;4.398;2024-03-02T08:54:49;14.60;99.90
29237;DHT22;16266;50.866;4.398;2024-03-02T08:57:15;14.90;99.90
29237;DHT22;16266;50.866;4.398;2024-03-02T08:59:40;15.50;99.90
29237;DHT22;16266;50.866;4.398;2024-03-02T09:02:06;15.70;99.90
29237;DHT22;16266;50.866;4.398;2024-03-02T09:04:31;15.50;99.90
29237;DHT22;16266;50.866;4.398;2024-03-02T09:06:57;15.70;99.90
29237;DHT22;16266;50.866;4.398;2024-03-02T09:09:24;15.70;99.90
29237;DHT22;16266;50.866;4.398;2024-03-02T09:11:49;15.60;99.90
29237;DHT22;16266;50.866;4.398;2024-03-02T09:14:15;15.20;99.90
29237;DHT22;16266;50.866;4.398;2024-03-02T09:16:40;15.20;99.90
29237;DHT22;16266;50.866;4.398;2024-03-02T09:19:06;15.30;99.90
29237;DHT22;16266;50.866;4.398;2024-03-02T09:21:31;15.30;99.90
29237;DHT22;16266;50.866;4.398;2024-03-02T09:23:57;16.00;99.90
29237;DHT22;16266;50.866;4.398;2024-03-02T09:26:23;16.00;99.90
29237;DHT22;16266;50.866;4.398;2024-03-02T09:28:50;14.90;99.90
29237;DHT22;16266;50.866;4.398;2024-03-02T09:31:15;14.80;99.90
29237;DHT22;16266;50.866;4.398;2024-03-02T09:33:41;14.70;99.90
29237;DHT22;16266;50.866;4.398;2024-03-02T09:36:16;15.50;99.90
29237;DHT22;16266;50.866;4.398;2024-03-02T09:38:41;15.40;99.90
29237;DHT22;16266;50.866;4.398;2024-03-02T09:41:07;15.50;99.90
29237;DHT22;16266;50.866;4.398;2024-03-02T09:43:32;14.30;99.90
29237;DHT22;16266;50.866;4.398;2024-03-02T09:45:58;13.50;99.90
29237;DHT22;16266;50.866;4.398;2024-03-02T09:48:24;13.00;99.90
29237;DHT22;16266;50.866;4.398;2024-03-02T09:50:49;12.80;99.90
29237;DHT22;16266;50.866;4.398;2024-03-02T09:53:15;12.70;99.90
29237;DHT22;16266;50.866;4.398;2024-03-02T09:55:40;12.90;99.90
29237;DHT22;16266;50.866;4.398;2024-03-02T09:58:10;13.30;99.90
29237;DHT22;16266;50.866;4.398;2024-03-02T10:00:35;13.90;99.90
29237;DHT22;16266;50.866;4.398;2024-03-02T10:03:01;14.00;99.90
29237;DHT22;16266;50.866;4.398;2024-03-02T10:05:26;15.00;99.90
29237;DHT22;16266;50.866;4.398;2024-03-02T10:08:01;15.40;99.90
29237;DHT22;16266;50.866;4.398;2024-03-02T10:10:39;16.40;99.90
29237;DHT22;16266;50.866;4.398;2024-03-02T10:13:06;17.10;96.80
29237;DHT22;16266;50.866;4.398;2024-03-02T10:15:32;16.60;97.30
29237;DHT22;16266;50.866;4.398;2024-03-02T10:17:58;17.10;95.60
29237;DHT22;16266;50.866;4.398;2024-03-02T10:20:24;16.50;95.30
29237;DHT22;16266;50.866;4.398;2024-03-02T10:22:50;16.60;96.80
29237;DHT22;16266;50.866;4.398;2024-03-02T10:25:28;16.70;95.80
29237;DHT22;16266;50.866;4.398;2024-03-02T10:27:56;15.30;99.90
29237;DHT22;16266;50.866;4.398;2024-03-02T10:30:22;14.30;99.90
29237;DHT22;16266;50.866;4.398;2024-03-02T10:32:48;14.60;99.90
29237;DHT22;16266;50.866;4.398;2024-03-02T10:35:14;14.40;99.90
29237;DHT22;16266;50.866;4.398;2024-03-02T10:37:40;15.50;99.90
29237;DHT22;16266;50.866;4.398;2024-03-02T10:40:06;15.10;99.90
29237;DHT22;16266;50.866;4.398;2024-03-02T10:42:33;14.50;99.90
29237;DHT22;16266;50.866;4.398;2024-03-02T10:44:59;14.50;99.90
29237;DHT22;16266;50.866;4.398;2024-03-02T10:47:25;15.80;99.90
29237;DHT22;16266;50.866;4.398;2024-03-02T10:49:52;15.80;99.90
29237;DHT22;16266;50.866;4.398;2024-03-02T10:52:19;16.60;99.80
29237;DHT22;16266;50.866;4.398;2024-03-02T10:54:45;16.40;98.20
29237;DHT22;16266;50.866;4.398;2024-03-02T10:57:10;16.70;97.70
29237;DHT22;16266;50.866;4.398;2024-03-02T10:59:37;15.90;96.40
29237;DHT22;16266;50.866;4.398;2024-03-02T11:02:05;15.60;98.70
29237;DHT22;16266;50.866;4.398;2024-03-02T11:04:32;16.00;99.90
29237;DHT22;16266;50.866;4.398;2024-03-02T11:07:05;16.90;95.20
29237;DHT22;16266;50.866;4.398;2024-03-02T11:09:32;16.20;91.90
29237;DHT22;16266;50.866;4.398;2024-03-02T11:14:24;14.50;99.90
29237;DHT22;16266;50.866;4.398;2024-03-02T11:16:50;14.20;99.90
29237;DHT22;16266;50.866;4.398;2024-03-02T11:19:16;14.70;99.90
29237;DHT22;16266;50.866;4.398;2024-03-02T11:21:42;15.70;99.90
29237;DHT22;16266;50.866;4.398;2024-03-02T11:27:03;15.30;96.00
29237;DHT22;16266;50.866;4.398;2024-03-02T11:32:14;15.20;99.90
29237;DHT22;16266;50.866;4.398;2024-03-02T11:34:44;15.40;98.70
29237;DHT22;16266;50.866;4.398;2024-03-02T11:37:12;15.90;97.40
29237;DHT22;16266;50.866;4.398;2024-03-02T11:39:38;16.00;94.90
29237;DHT22;16266;50.866;4.398;2024-03-02T11:42:07;15.90;97.30
29237;DHT22;16266;50.866;4.398;2024-03-02T11:44:36;15.00;99.10
29237;DHT22;16266;50.866;4.398;2024-03-02T11:47:07;14.80;99.90
29237;DHT22;16266;50.866;4.398;2024-03-02T11:49:36;15.00;99.90
29237;DHT22;16266;50.866;4.398;2024-03-02T11:52:03;15.30;99.90
29237;DHT22;16266;50.866;4.398;2024-03-02T11:54:29;15.90;95.80
29237;DHT22;16266;50.866;4.398;2024-03-02T11:56:59;16.10;93.70
29237;DHT22;16266;50.866;4.398;2024-03-02T11:59:28;17.30;87.10
29237;DHT22;16266;50.866;4.398;2024-03-02T12:01:54;18.20;70.70
29237;DHT22;16266;50.866;4.398;2024-03-02T12:04:21;18.20;61.40
29237;DHT22;16266;50.866;4.398;2024-03-02T12:06:46;17.60;60.40
29237;DHT22;16266;50.866;4.398;2024-03-02T12:09:12;17.10;69.30
29237;DHT22;16266;50.866;4.398;2024-03-02T12:11:40;16.90;75.40
29237;DHT22;16266;50.866;4.398;2024-03-02T12:14:10;15.90;82.90
29237;DHT22;16266;50.866;4.398;2024-03-02T12:16:36;15.20;93.80
29237;DHT22;16266;50.866;4.398;2024-03-02T12:19:03;14.90;98.30
29237;DHT22;16266;50.866;4.398;2024-03-02T12:21:29;14.50;99.90
29237;DHT22;16266;50.866;4.398;2024-03-02T12:23:54;14.80;98.80
29237;DHT22;16266;50.866;4.398;2024-03-02T12:26:20;15.10;98.10
29237;DHT22;16266;50.866;4.398;2024-03-02T12:28:47;15.30;95.90
29237;DHT22;16266;50.866;4.398;2024-03-02T12:31:13;16.30;85.60
29237;DHT22;16266;50.866;4.398;2024-03-02T12:33:39;17.10;74.40
29237;DHT22;16266;50.866;4.398;2024-03-02T12:36:06;17.30;70.10
29237;DHT22;16266;50.866;4.398;2024-03-02T12:38:34;16.90;66.50
29237;DHT22;16266;50.866;4.398;2024-03-02T12:40:59;16.30;75.80
29237;DHT22;16266;50.866;4.398;2024-03-02T12:43:29;16.10;87.50
29237;DHT22;16266;50.866;4.398;2024-03-02T12:45:55;16.00;90.90
29237;DHT22;16266;50.866;4.398;2024-03-02T12:48:21;15.50;90.60
29237;DHT22;16266;50.866;4.398;2024-03-02T12:50:46;15.10;94.90
29237;DHT22;16266;50.866;4.398;2024-03-02T12:53:15;14.80;97.60
29237;DHT22;16266;50.866;4.398;2024-03-02T12:55:41;14.80;99.40
29237;DHT22;16266;50.866;4.398;2024-03-02T12:58:07;14.90;99.00
29237;DHT22;16266;50.866;4.398;2024-03-02T13:00:33;15.30;94.80
29237;DHT22;16266;50.866;4.398;2024-03-02T13:03:00;15.80;91.20
29237;DHT22;16266;50.866;4.398;2024-03-02T13:05:32;16.10;89.10
29237;DHT22;16266;50.866;4.398;2024-03-02T13:07:58;15.70;85.40
29237;DHT22;16266;50.866;4.398;2024-03-02T13:10:24;15.10;90.80
29237;DHT22;16266;50.866;4.398;2024-03-02T13:12:50;14.90;93.40
29237;DHT22;16266;50.866;4.398;2024-03-02T13:15:15;14.60;96.90
29237;DHT22;16266;50.866;4.398;2024-03-02T13:17:41;14.30;98.70
29237;DHT22;16266;50.866;4.398;2024-03-02T13:20:06;14.40;99.90
29237;DHT22;16266;50.866;4.398;2024-03-02T13:22:35;14.70;99.90
29237;DHT22;16266;50.866;4.398;2024-03-02T13:25:01;14.70;99.40
29237;DHT22;16266;50.866;4.398;2024-03-02T13:27:29;14.60;97.70
29237;DHT22;16266;50.866;4.398;2024-03-02T13:29:55;14.50;99.30
29237;DHT22;16266;50.866;4.398;2024-03-02T13:32:20;14.60;96.70
29237;DHT22;16266;50.866;4.398;2024-03-02T13:34:49;14.40;97.90
29237;DHT22;16266;50.866;4.398;2024-03-02T13:37:14;14.20;99.90
29237;DHT22;16266;50.866;4.398;2024-03-02T13:39:40;14.40;99.90
29237;DHT22;16266;50.866;4.398;2024-03-02T13:42:09;14.50;98.90
29237;DHT22;16266;50.866;4.398;2024-03-02T13:44:36;14.60;98.20
29237;DHT22;16266;50.866;4.398;2024-03-02T13:47:02;14.50;99.30
29237;DHT22;16266;50.866;4.398;2024-03-02T13:49:28;14.20;99.90
29237;DHT22;16266;50.866;4.398;2024-03-02T13:52:04;14.30;99.90
29237;DHT22;16266;50.866;4.398;2024-03-02T13:54:41;14.20;99.90
29237;DHT22;16266;50.866;4.398;2024-03-02T13:57:07;14.30;99.90
29237;DHT22;16266;50.866;4.398;2024-03-02T13:59:33;14.20;99.90
29237;DHT22;16266;50.866;4.398;2024-03-02T14:02:00;14.10;99.90
29237;DHT22;16266;50.866;4.398;2024-03-02T14:04:25;13.90;99.90
29237;DHT22;16266;50.866;4.398;2024-03-02T14:06:51;13.70;99.90
29237;DHT22;16266;50.866;4.398;2024-03-02T14:09:18;13.70;99.90
29237;DHT22;16266;50.866;4.398;2024-03-02T14:11:45;13.90;99.90
29237;DHT22;16266;50.866;4.398;2024-03-02T14:14:11;13.80;99.90
29237;DHT22;16266;50.866;4.398;2024-03-02T14:16:36;13.70;99.90
29237;DHT22;16266;50.866;4.398;2024-03-02T14:19:02;13.60;99.90
29237;DHT22;16266;50.866;4.398;2024-03-02T14:21:30;13.60;99.90
29237;DHT22;16266;50.866;4.398;2024-03-02T14:23:55;13.60;99.90
29237;DHT22;16266;50.866;4.398;2024-03-02T14:26:21;13.50;99.90
29237;DHT22;16266;50.866;4.398;2024-03-02T14:28:47;13.30;99.90
29237;DHT22;16266;50.866;4.398;2024-03-02T14:31:13;13.00;99.90
29237;DHT22;16266;50.866;4.398;2024-03-02T14:33:38;12.50;99.90
29237;DHT22;16266;50.866;4.398;2024-03-02T14:36:04;12.40;99.90
29237;DHT22;16266;50.866;4.398;2024-03-02T14:38:30;12.10;99.90
29237;DHT22;16266;50.866;4.398;2024-03-02T14:40:55;12.10;99.90
29237;DHT22;16266;50.866;4.398;2024-03-02T14:43:21;12.10;99.90
29237;DHT22;16266;50.866;4.398;2024-03-02T14:45:47;12.10;99.90
29237;DHT22;16266;50.866;4.398;2024-03-02T14:48:13;12.10;99.90
29237;DHT22;16266;50.866;4.398;2024-03-02T14:50:39;12.20;99.90
29237;DHT22;16266;50.866;4.398;2024-03-02T14:53:04;12.50;99.90
29237;DHT22;16266;50.866;4.398;2024-03-02T14:55:32;12.80;99.90
29237;DHT22;16266;50.866;4.398;2024-03-02T14:57:59;13.10;99.90
29237;DHT22;16266;50.866;4.398;2024-03-02T15:00:25;13.30;99.90
29237;DHT22;16266;50.866;4.398;2024-03-02T15:02:50;13.40;99.90
29237;DHT22;16266;50.866;4.398;2024-03-02T15:05:16;13.30;99.90
29237;DHT22;16266;50.866;4.398;2024-03-02T15:07:41;13.30;99.90
29237;DHT22;16266;50.866;4.398;2024-03-02T15:10:07;13.20;99.90
29237;DHT22;16266;50.866;4.398;2024-03-02T15:12:33;13.10;99.90
29237;DHT22;16266;50.866;4.398;2024-03-02T15:14:58;13.00;99.90
29237;DHT22;16266;50.866;4.398;2024-03-02T15:17:24;12.70;99.90
29237;DHT22;16266;50.866;4.398;2024-03-02T15:19:50;12.50;99.90
29237;DHT22;16266;50.866;4.398;2024-03-02T15:22:15;12.20;99.90
29237;DHT22;16266;50.866;4.398;2024-03-02T15:24:41;12.10;99.90
29237;DHT22;16266;50.866;4.398;2024-03-02T15:27:07;11.70;99.90
29237;DHT22;16266;50.866;4.398;2024-03-02T15:29:34;11.60;99.90
29237;DHT22;16266;50.866;4.398;2024-03-02T15:32:00;11.50;99.90
29237;DHT22;16266;50.866;4.398;2024-03-02T15:34:25;11.40;99.90
29237;DHT22;16266;50.866;4.398;2024-03-02T15:36:51;11.30;99.90
29237;DHT22;16266;50.866;4.398;2024-03-02T15:39:16;11.30;99.90
29237;DHT22;16266;50.866;4.398;2024-03-02T15:41:44;11.20;99.90
29237;DHT22;16266;50.866;4.398;2024-03-02T15:44:10;11.20;99.90